Station: EBLG - 12/12/2019 21:20Z (il y a 20 minutes)
EBLG 122120Z 17018KT 9999 -RA SCT018 04/01 Q0985 TEMPO 19020G30KT
Vent du 170º - 18 kt
Visibilité > 10 km (faible pluie)
Ciel 50% couvert à 1800 pieds
Température: +04ºC - Point de rosée: +01ºC - QNH: 985 hPa
Temporairement
Vent du 190º - 20 kt - rafales 30 kt